WetterOnline ( https://www.wetteronline.de )

Wetter aktuell Partenstein

Aktuelles Wetter: Neuhütten/Spessart (340m)

6-stündlich | Neueste Meldungen
Ortszeit Temperatur Wetter
Mi, 17.07. 20:00 21.3° C fast wolkenlos
Mi, 17.07. 14:00 20.2° C bewölkt
Mi, 17.07. 8:00 12.6° C Nebel
Mi, 17.07. 2:00 12.8° C Nebel
Di, 16.07. 20:00 19.4° C wolkenlos
Di, 16.07. 14:00 21.8° C leicht bewölkt
Di, 16.07. 8:00 17.8° C bewölkt
Di, 16.07. 2:00 17.0° C Regen
Ortszeit Temperatur Wetter
Do, 18.07. 0:30 13.8° C wolkig
Do, 18.07. 0:20 13.8° C wolkig
Do, 18.07. 0:10 14.0° C bewölkt
Do, 18.07. 0:00 14.4° C leicht bewölkt
Mi, 17.07. 23:50 14.4° C leicht bewölkt
Mi, 17.07. 23:40 14.4° C leicht bewölkt
Mi, 17.07. 23:30 14.8° C wolkenlos
Mi, 17.07. 23:00 15.2° C wolkenlos
Mi, 17.07. 22:30 16.0° C fast wolkenlos
Mi, 17.07. 22:00 16.8° C fast wolkenlos
Mi, 17.07. 21:30 17.7° C wolkenlos
Ortszeit Relative Feuchte Sichtweite
Mi, 17.07. 20:00 60% >70 km
Mi, 17.07. 14:00 63% 55 km
Mi, 17.07. 8:00 97% 30 km
Mi, 17.07. 2:00 98% 13 km
Di, 16.07. 20:00 66% 60 km
Di, 16.07. 14:00 58% 65 km
Di, 16.07. 8:00 92% 26 km
Di, 16.07. 2:00 98% 35 km
Ortszeit Relative Feuchte Sichtweite
Do, 18.07. 0:30 97% 40 km
Do, 18.07. 0:20 97% -
Do, 18.07. 0:10 96% -
Do, 18.07. 0:00 94% 50 km
Mi, 17.07. 23:50 94% -
Mi, 17.07. 23:40 94% -
Mi, 17.07. 23:30 93% 45 km
Mi, 17.07. 23:00 92% 50 km
Mi, 17.07. 22:30 89% 60 km
Mi, 17.07. 22:00 85% 45 km
Mi, 17.07. 21:30 82% 65 km
Ortszeit Niederschlagsmenge Niederschlagsart
Mi, 17.07. 20:00 0.0 l/m2 in 12 Std. -
Mi, 17.07. 14:00 0.0 l/m2 in 6 Std. -
Mi, 17.07. 8:00 0.0 l/m2 in 12 Std. -
Mi, 17.07. 2:00 0.0 l/m2 in 6 Std. -
Di, 16.07. 20:00 0.2 l/m2 in 12 Std. Regen
Di, 16.07. 14:00 0.0 l/m2 in 6 Std. -
Di, 16.07. 8:00 14 l/m2 in 12 Std. -
Di, 16.07. 2:00 14 l/m2 in 6 Std. Regen
Ortszeit Niederschlagsmenge Niederschlagsart
Do, 18.07. 0:30 0.0 l/m2 in 30 Min -
Do, 18.07. 0:20 keine Meldung -
Do, 18.07. 0:10 keine Meldung -
Do, 18.07. 0:00 0.0 l/m2 in 1 Std. -
Mi, 17.07. 23:50 keine Meldung -
Mi, 17.07. 23:40 keine Meldung -
Mi, 17.07. 23:30 0.0 l/m2 in 30 Min -
Mi, 17.07. 23:00 0.0 l/m2 in 1 Std. -
Mi, 17.07. 22:30 0.0 l/m2 in 30 Min -
Mi, 17.07. 22:00 0.0 l/m2 in 1 Std. -
Mi, 17.07. 21:30 0.0 l/m2 in 30 Min -
Ortszeit Stärke Spitze Richtung
km/h Bft. km/h Grad Sektor
Mi, 17.07. 20:00 4 1 22 40° NO
Mi, 17.07. 14:00 9 2 33 280° W
Mi, 17.07. 8:00 2 1 9 240° SW
Mi, 17.07. 2:00 4 1 11 290° W
Di, 16.07. 20:00 6 1 48 300° NW
Di, 16.07. 14:00 26 4 44 230° SW
Di, 16.07. 8:00 7 2 18 240° SW
Di, 16.07. 2:00 7 2 72 20° N
Ortszeit Stärke Spitze Richtung
km/h Bft. km/h Grad Sektor
Do, 18.07. 0:30 0 0 4 - -
Do, 18.07. 0:20 0 0 - 330° NW
Do, 18.07. 0:10 2 1 - 260° W
Do, 18.07. 0:00 2 1 4 260° W
Mi, 17.07. 23:50 2 1 - 260° W
Mi, 17.07. 23:40 2 1 - 260° W
Mi, 17.07. 23:30 4 1 4 230° SW
Mi, 17.07. 23:00 4 1 4 230° SW
Mi, 17.07. 22:30 4 1 4 230° SW
Mi, 17.07. 22:00 4 1 7 250° W
Mi, 17.07. 21:30 4 1 4 210° SW
Ortszeit Untergrenze Bedeckung Gattung
total tief tief mittel hoch
Mi, 17.07. 20:00 2700 m 1/8 1/8 - - -
Mi, 17.07. 14:00 2400 m 7/8 7/8 - - -
Mi, 17.07. 8:00 1260 m 8/8 3/8 - - -
Mi, 17.07. 2:00 - 0/8 0/8 - - -
Di, 16.07. 20:00 - 0/8 0/8 - - -
Di, 16.07. 14:00 2100 m 3/8 3/8 - - -
Di, 16.07. 8:00 270 m 7/8 7/8 - - -
Di, 16.07. 2:00 <30 m 7/8 0/8 - - -
Ortszeit Bedeckungsgrad in Achtel und Wolkenuntergrenze
Do, 18.07. 0:30 8(9000m)
Do, 18.07. 0:20 8(9000m)
Do, 18.07. 0:10 7
Do, 18.07. 0:00 5(9000m)
Mi, 17.07. 23:50 5(9000m)
Mi, 17.07. 23:40 2
Mi, 17.07. 23:30 keine Wolken
Mi, 17.07. 23:00 keine Wolken
Mi, 17.07. 22:30 1(10500m)
Mi, 17.07. 22:00 1(10500m)
Mi, 17.07. 21:30 keine Wolken
Ortszeit Luftdruck NN (hPa) Tendenz (hPa in 3 Std.)
Mi, 17.07. 20:00 1021 + 0,2
Mi, 17.07. 14:00 1021 + 0,6
Mi, 17.07. 8:00 1021 + 1,6
Mi, 17.07. 2:00 1018 + 0,3
Di, 16.07. 20:00 1016 + 1,5
Di, 16.07. 14:00 1014 + 0,1
Di, 16.07. 8:00 1013 + 1,3
Di, 16.07. 2:00 1011 + 2,1
Ortszeit Luftdruck NN (hPa) Tendenz (hPa in 3 Std.)
Do, 18.07. 0:30 1024 + 0,8
Do, 18.07. 0:20 1024 keine Meldung
Do, 18.07. 0:10 1024 keine Meldung
Do, 18.07. 0:00 1024 + 0,9
Mi, 17.07. 23:50 1024 keine Meldung
Mi, 17.07. 23:40 1024 keine Meldung
Mi, 17.07. 23:30 1023 + 1,1
Mi, 17.07. 23:00 1023 + 1,2
Mi, 17.07. 22:30 1023 + 1,2
Mi, 17.07. 22:00 1023 + 1,1
Mi, 17.07. 21:30 1022 + 1,0
Ortszeit Schneehöhe (cm)
Mi, 17.07. 20:00 0
Mi, 17.07. 14:00 0
Mi, 17.07. 8:00 0
Mi, 17.07. 2:00 0
Di, 16.07. 20:00 0
Di, 16.07. 14:00 0
Di, 16.07. 8:00 0
Di, 16.07. 2:00 0
Ortszeit Schneehöhe (cm)
Do, 18.07. 0:30 0
Do, 18.07. 0:20 0
Do, 18.07. 0:10 -
Do, 18.07. 0:00 0
Mi, 17.07. 23:50 0
Mi, 17.07. 23:40 -
Mi, 17.07. 23:30 0
Mi, 17.07. 23:00 0
Mi, 17.07. 22:30 0
Mi, 17.07. 22:00 0
Mi, 17.07. 21:30 0
Link zu dieser Seite / Seite empfehlen

Das Wetter in ...